createdAt,value
2019-03-28T00:00:27.722Z,91.26
2019-03-28T00:01:28.266Z,91.31
2019-03-28T00:02:28.805Z,91.14
2019-03-28T00:03:29.222Z,91.00
2019-03-28T00:04:30.000Z,91.33
2019-03-28T00:05:30.384Z,91.56
2019-03-28T00:06:30.827Z,91.56
2019-03-28T00:07:31.238Z,91.57
2019-03-28T00:08:31.600Z,91.52
2019-03-28T00:09:32.014Z,91.71
2019-03-28T00:10:32.361Z,91.59
2019-03-28T00:11:32.691Z,91.31
2019-03-28T00:12:33.169Z,91.39
2019-03-28T00:13:33.508Z,92.12
2019-03-28T00:14:34.180Z,91.96
2019-03-28T00:15:34.631Z,91.90
2019-03-28T00:16:35.076Z,92.17
2019-03-28T00:17:35.552Z,92.55
2019-03-28T00:18:36.027Z,92.09
2019-03-28T00:19:36.356Z,91.99
2019-03-28T00:20:36.916Z,92.16
2019-03-28T00:21:37.447Z,91.97
2019-03-28T00:22:37.816Z,91.80
2019-03-28T00:23:38.117Z,91.42
2019-03-28T00:24:38.832Z,91.50
2019-03-28T00:25:39.277Z,91.45
2019-03-28T00:26:39.806Z,91.42
2019-03-28T00:26:49.325Z,91.31
2019-03-28T00:27:50.768Z,91.31
2019-03-28T00:28:51.072Z,91.15
2019-03-28T00:29:51.567Z,91.09
2019-03-28T00:30:51.926Z,91.43
2019-03-28T00:31:52.731Z,91.35
2019-03-28T00:32:53.063Z,91.77
2019-03-28T00:33:53.416Z,92.40
2019-03-28T00:34:53.779Z,92.53
2019-03-28T00:35:54.389Z,92.75
2019-03-28T00:36:54.753Z,92.63
2019-03-28T00:37:55.415Z,92.21
2019-03-28T00:38:55.895Z,92.64
2019-03-28T00:39:56.576Z,92.53
2019-03-28T00:40:56.835Z,92.64
2019-03-28T00:41:57.271Z,92.91
2019-03-28T00:42:57.607Z,92.81
2019-03-28T00:43:58.102Z,92.79
2019-03-28T00:44:58.634Z,93.15
2019-03-28T00:45:58.996Z,93.53
2019-03-28T00:46:59.592Z,93.38
2019-03-28T00:48:00.092Z,92.74
2019-03-28T00:49:00.621Z,92.47
2019-03-28T00:50:01.087Z,92.63
2019-03-28T00:51:01.556Z,92.60
2019-03-28T00:52:02.178Z,92.52
2019-03-28T00:53:02.823Z,92.46
2019-03-28T00:54:03.109Z,92.61
2019-03-28T00:55:03.544Z,92.88
2019-03-28T00:56:03.818Z,92.57
2019-03-28T00:57:04.302Z,92.71
2019-03-28T00:58:04.742Z,93.01
2019-03-28T00:59:05.169Z,92.83
2019-03-28T01:00:05.501Z,92.92
2019-03-28T01:01:05.943Z,92.89
2019-03-28T01:02:06.433Z,93.08
2019-03-28T01:03:06.971Z,93.36
2019-03-28T01:04:07.273Z,93.78
2019-03-28T01:05:07.611Z,93.91
2019-03-28T01:06:08.026Z,94.00
2019-03-28T01:07:08.308Z,94.03
2019-03-28T01:08:08.657Z,93.91
2019-03-28T01:09:09.110Z,94.17
2019-03-28T01:10:09.499Z,93.95
2019-03-28T01:11:10.135Z,93.98
2019-03-28T01:11:18.661Z,93.67
2019-03-28T01:12:19.953Z,93.65
2019-03-28T01:13:20.466Z,93.53
2019-03-28T01:14:20.893Z,93.64
2019-03-28T01:15:21.136Z,93.89
2019-03-28T01:16:21.461Z,94.01
2019-03-28T01:17:21.740Z,93.86
2019-03-28T01:18:22.375Z,94.19
2019-03-28T01:19:22.772Z,94.33
2019-03-28T01:20:23.189Z,94.19
2019-03-28T01:21:23.512Z,93.88
2019-03-28T01:22:23.898Z,93.93
2019-03-28T01:23:24.238Z,93.61
2019-03-28T01:24:24.586Z,93.93
2019-03-28T01:25:24.840Z,93.78
2019-03-28T01:26:25.231Z,94.03
2019-03-28T01:27:25.701Z,94.00
2019-03-28T01:28:26.044Z,94.50
2019-03-28T01:29:26.361Z,94.80
2019-03-28T01:30:26.650Z,93.91
2019-03-28T01:31:27.096Z,94.17
2019-03-28T01:32:28.244Z,94.14
2019-03-28T01:33:26.871Z,94.15
2019-03-28T01:34:28.217Z,93.86
2019-03-28T01:35:28.545Z,93.88
2019-03-28T01:36:28.871Z,93.59
2019-03-28T01:37:29.539Z,93.42
2019-03-28T01:38:29.990Z,93.61
2019-03-28T01:39:30.315Z,93.24
2019-03-28T01:40:30.987Z,93.52
2019-03-28T01:41:31.463Z,93.79
2019-03-28T01:42:31.711Z,93.56
2019-03-28T01:43:32.062Z,93.66
2019-03-28T01:44:31.334Z,93.67
2019-03-28T01:45:33.261Z,94.41
2019-03-28T01:46:32.265Z,94.38
2019-03-28T01:47:33.600Z,94.70
2019-03-28T01:48:33.988Z,94.76
2019-03-28T01:49:34.430Z,94.40
2019-03-28T01:50:34.892Z,94.36
2019-03-28T01:51:35.399Z,94.62
2019-03-28T01:52:35.750Z,94.44
2019-03-28T01:53:36.076Z,94.62
2019-03-28T01:54:36.922Z,94.74
2019-03-28T01:55:37.461Z,94.88
2019-03-28T01:56:37.928Z,94.30
2019-03-28T01:57:38.350Z,95.14
2019-03-28T01:57:46.870Z,95.12
2019-03-28T01:58:48.190Z,95.09
2019-03-28T01:59:48.634Z,95.41
2019-03-28T02:00:49.029Z,95.87
2019-03-28T02:01:49.419Z,95.91
2019-03-28T02:02:50.085Z,95.76
2019-03-28T02:03:50.391Z,95.66
2019-03-28T02:04:50.827Z,95.36
2019-03-28T02:05:51.656Z,95.25
2019-03-28T02:06:52.056Z,95.23
2019-03-28T02:07:52.392Z,94.97
2019-03-28T02:08:52.943Z,94.72
2019-03-28T02:09:53.397Z,94.94
2019-03-28T02:10:53.748Z,95.33
2019-03-28T02:11:54.144Z,95.33
2019-03-28T02:12:54.410Z,95.18
2019-03-28T02:13:54.819Z,95.19
2019-03-28T02:14:55.142Z,95.20
2019-03-28T02:15:55.619Z,95.43
2019-03-28T02:16:55.987Z,95.46
2019-03-28T02:17:56.482Z,95.42
2019-03-28T02:18:56.790Z,95.27
2019-03-28T02:19:57.189Z,95.46
2019-03-28T02:20:57.546Z,95.35
2019-03-28T02:21:57.916Z,95.02
2019-03-28T02:22:58.636Z,95.35
2019-03-28T02:23:58.952Z,95.82
2019-03-28T02:24:59.414Z,95.68
2019-03-28T02:25:59.993Z,95.50
2019-03-28T02:27:00.656Z,95.56
2019-03-28T02:28:01.025Z,95.73
2019-03-28T02:29:01.343Z,95.99
2019-03-28T02:30:01.754Z,95.83
2019-03-28T02:31:00.758Z,95.74
2019-03-28T02:32:02.292Z,95.84
2019-03-28T02:33:01.724Z,95.70
2019-03-28T02:34:03.350Z,95.55
2019-03-28T02:35:03.817Z,95.22
2019-03-28T02:36:04.427Z,95.03
2019-03-28T02:37:04.785Z,95.38
2019-03-28T02:38:05.308Z,95.52
2019-03-28T02:39:04.883Z,95.44
2019-03-28T02:40:06.404Z,94.75
2019-03-28T02:41:06.923Z,95.03
2019-03-28T02:42:07.585Z,94.76
2019-03-28T02:43:07.938Z,94.69
2019-03-28T02:43:16.977Z,94.81
2019-03-28T02:44:18.387Z,94.77
2019-03-28T02:45:17.624Z,94.63
2019-03-28T02:46:18.930Z,94.83
2019-03-28T02:47:19.288Z,94.60
2019-03-28T02:48:19.669Z,93.90
2019-03-28T02:49:20.147Z,94.08
2019-03-28T02:50:19.374Z,94.28
2019-03-28T02:51:20.800Z,94.22
2019-03-28T02:52:20.073Z,94.69
2019-03-28T02:53:20.573Z,94.23
2019-03-28T02:54:21.996Z,94.46
2019-03-28T02:55:23.622Z,94.46
2019-03-28T02:56:21.377Z,94.66
2019-03-28T02:57:22.719Z,94.43
2019-03-28T02:58:23.524Z,94.85
2019-03-28T02:59:23.780Z,94.79
2019-03-28T03:00:24.181Z,94.71
2019-03-28T03:01:24.609Z,95.06
2019-03-28T03:02:25.060Z,95.05
2019-03-28T03:03:25.468Z,95.00
2019-03-28T03:04:25.613Z,95.10
2019-03-28T03:05:26.029Z,95.01
2019-03-28T03:06:26.496Z,95.10
2019-03-28T03:07:26.876Z,95.16
2019-03-28T03:08:27.386Z,95.45
2019-03-28T03:09:26.550Z,95.36
2019-03-28T03:10:26.797Z,95.30
2019-03-28T03:11:28.421Z,95.25
2019-03-28T03:12:28.980Z,95.07
2019-03-28T03:13:29.226Z,94.95
2019-03-28T03:14:29.636Z,94.97
2019-03-28T03:15:30.309Z,95.28
2019-03-28T03:16:29.299Z,95.40
2019-03-28T03:17:30.577Z,95.33
2019-03-28T03:18:30.861Z,95.15
2019-03-28T03:19:31.154Z,95.36
2019-03-28T03:20:31.518Z,95.60
2019-03-28T03:21:31.886Z,95.84
2019-03-28T03:22:32.235Z,95.88
2019-03-28T03:23:32.510Z,95.74
2019-03-28T03:24:32.823Z,95.79
2019-03-28T03:25:33.087Z,95.74
2019-03-28T03:26:33.475Z,96.06
2019-03-28T03:27:32.903Z,95.83
2019-03-28T03:28:34.255Z,95.81
2019-03-28T03:29:33.607Z,95.61
2019-03-28T03:30:34.987Z,95.11
2019-03-28T03:31:35.285Z,95.07
2019-03-28T03:32:34.615Z,95.19
2019-03-28T03:33:37.717Z,95.46
2019-03-28T03:34:35.533Z,95.47
2019-03-28T03:35:37.017Z,95.90
2019-03-28T03:36:36.441Z,96.22
2019-03-28T03:36:45.990Z,95.68
2019-03-28T03:37:47.485Z,95.71
2019-03-28T03:38:48.060Z,95.61
2019-03-28T03:39:47.407Z,95.69
2019-03-28T03:40:48.829Z,95.87
2019-03-28T03:41:49.150Z,95.45
2019-03-28T03:42:49.788Z,95.18
2019-03-28T03:43:50.151Z,95.42
2019-03-28T03:44:50.479Z,95.40
2019-03-28T03:45:50.817Z,95.17
2019-03-28T03:46:51.103Z,95.05
2019-03-28T03:47:51.577Z,95.59
2019-03-28T03:48:51.856Z,95.84
2019-03-28T03:49:52.174Z,96.16
2019-03-28T03:50:52.584Z,95.75
2019-03-28T03:51:53.363Z,95.53
2019-03-28T03:52:54.095Z,95.63
2019-03-28T03:53:54.363Z,95.65
2019-03-28T03:54:54.686Z,95.51
2019-03-28T03:55:55.068Z,96.18
2019-03-28T03:56:55.677Z,96.45
2019-03-28T03:58:13.814Z,95.88
2019-03-28T03:58:55.566Z,95.43
2019-03-28T03:59:56.988Z,95.42
2019-03-28T04:00:57.335Z,95.63
2019-03-28T04:01:57.681Z,95.73
2019-03-28T04:02:58.015Z,95.58
2019-03-28T04:03:58.333Z,95.33
2019-03-28T04:04:58.682Z,95.65
2019-03-28T04:05:57.978Z,95.57
2019-03-28T04:06:59.484Z,95.39
2019-03-28T04:08:00.293Z,95.66
2019-03-28T04:08:59.232Z,95.12
2019-03-28T04:10:00.720Z,95.58
2019-03-28T04:11:00.033Z,95.63
2019-03-28T04:12:01.493Z,95.41
2019-03-28T04:13:01.976Z,95.40
2019-03-28T04:14:02.699Z,95.84
2019-03-28T04:15:01.735Z,95.52
2019-03-28T04:16:02.109Z,95.17
2019-03-28T04:17:03.490Z,95.23
2019-03-28T04:18:03.817Z,95.45
2019-03-28T04:19:04.285Z,95.38
2019-03-28T04:20:03.814Z,96.12
2019-03-28T04:21:05.586Z,96.21
2019-03-28T04:22:04.912Z,96.27
2019-03-28T04:23:06.234Z,96.05
2019-03-28T04:24:06.565Z,96.04
2019-03-28T04:25:06.838Z,95.66
2019-03-28T04:26:07.182Z,95.48
2019-03-28T04:26:18.704Z,95.09
2019-03-28T04:27:20.990Z,95.11
2019-03-28T04:28:31.376Z,95.07
2019-03-28T04:29:19.826Z,95.01
2019-03-28T04:30:22.605Z,94.90
2019-03-28T04:31:20.705Z,95.26
2019-03-28T04:32:22.105Z,95.61
2019-03-28T04:33:22.421Z,95.57
2019-03-28T04:34:22.899Z,95.64
2019-03-28T04:35:23.194Z,95.39
2019-03-28T04:36:23.733Z,95.34
2019-03-28T04:37:24.098Z,95.41
2019-03-28T04:38:24.827Z,95.03
2019-03-28T04:39:23.831Z,95.11
2019-03-28T04:40:25.080Z,94.85
2019-03-28T04:41:25.532Z,94.95
2019-03-28T04:42:25.810Z,95.12
2019-03-28T04:43:26.182Z,94.60
2019-03-28T04:44:26.550Z,94.88
2019-03-28T04:45:26.957Z,94.57
2019-03-28T04:46:27.309Z,94.10
2019-03-28T04:47:27.638Z,94.65
2019-03-28T04:48:28.118Z,94.30
2019-03-28T04:49:28.743Z,94.24
2019-03-28T04:50:29.191Z,93.77
2019-03-28T04:51:29.470Z,94.07
2019-03-28T04:52:31.920Z,94.16
2019-03-28T04:53:29.702Z,94.35
2019-03-28T04:54:29.528Z,94.12
2019-03-28T04:55:29.960Z,94.30
2019-03-28T04:56:31.428Z,94.20
2019-03-28T04:57:31.789Z,94.43
2019-03-28T04:58:43.716Z,95.00
2019-03-28T04:59:31.413Z,94.84
2019-03-28T05:00:33.332Z,94.28
2019-03-28T05:01:31.974Z,94.74
2019-03-28T05:02:33.313Z,95.08
2019-03-28T05:03:33.639Z,95.45
2019-03-28T05:04:34.022Z,95.12
2019-03-28T05:05:34.446Z,94.87
2019-03-28T05:06:37.752Z,95.15
2019-03-28T05:07:34.277Z,95.60
2019-03-28T05:08:35.673Z,95.31
2019-03-28T05:09:34.945Z,95.30
2019-03-28T05:10:36.274Z,95.17
2019-03-28T05:11:36.759Z,94.99
2019-03-28T05:12:37.069Z,95.13
2019-03-28T05:13:37.518Z,95.30
2019-03-28T05:14:37.958Z,94.58
2019-03-28T05:15:38.604Z,94.98
2019-03-28T05:16:39.134Z,95.14
2019-03-28T05:17:40.449Z,95.25
2019-03-28T05:18:38.920Z,95.63
2019-03-28T05:18:47.494Z,95.24
2019-03-28T05:19:48.804Z,95.20
2019-03-28T05:20:49.245Z,94.73
2019-03-28T05:21:49.617Z,94.92
2019-03-28T05:22:49.859Z,94.62
2019-03-28T05:23:50.157Z,94.71
2019-03-28T05:24:50.625Z,94.29
2019-03-28T05:25:50.963Z,94.65
2019-03-28T05:26:51.280Z,94.60
2019-03-28T05:27:51.567Z,94.58
2019-03-28T05:28:57.515Z,94.39
2019-03-28T05:29:51.290Z,93.92
2019-03-28T05:30:51.535Z,93.83
2019-03-28T05:31:52.844Z,93.85
2019-03-28T05:32:53.196Z,93.54
2019-03-28T05:33:53.527Z,93.10
2019-03-28T05:34:53.879Z,93.44
2019-03-28T05:35:54.603Z,93.38
2019-03-28T05:36:55.073Z,93.52
2019-03-28T05:37:55.468Z,93.90
2019-03-28T05:38:55.757Z,94.03
2019-03-28T05:39:56.584Z,93.87
2019-03-28T05:40:57.327Z,94.34
2019-03-28T05:41:57.682Z,94.84
2019-03-28T05:42:57.979Z,95.25
2019-03-28T05:43:58.281Z,94.37
2019-03-28T05:44:58.676Z,94.55
2019-03-28T05:45:58.962Z,94.61
2019-03-28T05:46:59.377Z,94.67
2019-03-28T05:48:00.451Z,95.14
2019-03-28T05:48:59.037Z,94.59
2019-03-28T05:50:00.509Z,94.72
2019-03-28T05:50:59.637Z,94.97
2019-03-28T05:52:00.932Z,95.02
2019-03-28T05:53:01.512Z,94.63
2019-03-28T05:54:01.816Z,94.49
2019-03-28T05:55:05.209Z,94.24
2019-03-28T05:56:01.724Z,93.79
2019-03-28T05:57:03.055Z,93.69
2019-03-28T05:58:03.336Z,93.79
2019-03-28T05:59:10.704Z,93.71
2019-03-28T06:00:02.870Z,93.73
2019-03-28T06:01:04.140Z,92.97
2019-03-28T06:02:04.357Z,93.14
2019-03-28T06:03:04.751Z,93.72
2019-03-28T06:04:05.129Z,93.10
2019-03-28T06:05:05.395Z,93.22
2019-03-28T06:06:05.888Z,92.96
2019-03-28T06:06:14.917Z,93.18
2019-03-28T06:07:16.310Z,93.15
2019-03-28T06:08:15.874Z,92.74
2019-03-28T06:09:17.562Z,93.32
2019-03-28T06:10:18.120Z,93.72
2019-03-28T06:11:18.473Z,94.14
2019-03-28T06:12:19.305Z,94.49
2019-03-28T06:13:18.064Z,94.55
2019-03-28T06:14:19.353Z,94.29
2019-03-28T06:15:19.663Z,93.80
2019-03-28T06:16:20.001Z,93.68
2019-03-28T06:17:19.239Z,93.44
2019-03-28T06:18:20.587Z,92.82
2019-03-28T06:19:20.951Z,93.34
2019-03-28T06:20:21.360Z,93.19
2019-03-28T06:21:21.856Z,92.72
2019-03-28T06:22:22.502Z,92.68
2019-03-28T06:23:23.098Z,92.64
2019-03-28T06:24:23.604Z,92.62
2019-03-28T06:25:23.715Z,92.23
2019-03-28T06:26:24.123Z,91.46
2019-03-28T06:27:24.488Z,91.72
2019-03-28T06:28:25.411Z,91.83
2019-03-28T06:29:25.740Z,91.30
2019-03-28T06:30:24.663Z,91.89
2019-03-28T06:31:26.177Z,91.54
2019-03-28T06:32:26.599Z,92.19
2019-03-28T06:33:26.912Z,91.32
2019-03-28T06:34:27.334Z,90.67
2019-03-28T06:35:27.690Z,90.63
2019-03-28T06:36:28.051Z,90.64
2019-03-28T06:37:28.492Z,91.67
2019-03-28T06:38:28.972Z,91.45
2019-03-28T06:39:29.253Z,91.39
2019-03-28T06:40:29.546Z,91.14
2019-03-28T06:41:29.912Z,90.77
2019-03-28T06:42:30.199Z,90.80
2019-03-28T06:43:30.498Z,90.68
2019-03-28T06:44:30.817Z,91.48
2019-03-28T06:45:30.297Z,91.00
2019-03-28T06:46:31.804Z,90.84
2019-03-28T06:47:32.223Z,90.96
2019-03-28T06:48:32.493Z,90.84
2019-03-28T06:49:32.935Z,90.18
2019-03-28T06:50:33.283Z,90.05
2019-03-28T06:51:33.323Z,91.03
2019-03-28T06:52:33.666Z,90.79
2019-03-28T06:53:33.998Z,91.10
2019-03-28T06:54:34.300Z,90.23
2019-03-28T06:54:42.826Z,90.11
2019-03-28T06:55:44.445Z,90.13
2019-03-28T06:56:44.695Z,89.87
2019-03-28T06:57:45.257Z,89.60
2019-03-28T06:58:45.728Z,90.26
2019-03-28T06:59:46.047Z,90.09
2019-03-28T07:00:46.554Z,90.22
2019-03-28T07:01:46.876Z,89.59
2019-03-28T07:02:47.253Z,90.76
2019-03-28T07:03:47.607Z,90.77
2019-03-28T07:04:46.972Z,90.12
2019-03-28T07:05:48.399Z,89.43
2019-03-28T07:06:47.628Z,89.86
2019-03-28T07:07:49.010Z,89.77
2019-03-28T07:08:49.604Z,88.56
2019-03-28T07:09:50.016Z,88.40
2019-03-28T07:10:50.364Z,87.30
2019-03-28T07:11:50.716Z,87.58
2019-03-28T07:12:50.989Z,87.62
2019-03-28T07:13:51.482Z,87.19
2019-03-28T07:14:51.801Z,86.08
2019-03-28T07:15:52.157Z,85.87
2019-03-28T07:16:52.622Z,85.87
2019-03-28T07:17:52.924Z,86.28
2019-03-28T07:18:53.469Z,85.13
2019-03-28T07:19:54.145Z,84.18
2019-03-28T07:20:54.576Z,82.90
2019-03-28T07:21:54.951Z,83.06
2019-03-28T07:22:55.382Z,82.49
2019-03-28T07:23:55.744Z,81.47
2019-03-28T07:24:56.176Z,80.75
2019-03-28T07:25:56.712Z,79.62
2019-03-28T07:26:57.521Z,78.49
2019-03-28T07:27:57.942Z,78.63
2019-03-28T07:28:59.376Z,78.11
2019-03-28T07:29:57.619Z,77.41
2019-03-28T07:30:58.984Z,76.75
2019-03-28T07:31:58.335Z,75.42
2019-03-28T07:32:58.647Z,75.03
2019-03-28T07:34:00.089Z,74.38
2019-03-28T07:35:00.649Z,74.21
2019-03-28T07:36:01.049Z,72.52
2019-03-28T07:37:01.339Z,71.88
2019-03-28T07:38:01.786Z,70.89
2019-03-28T07:39:02.059Z,69.52
2019-03-28T07:40:02.396Z,69.42
2019-03-28T07:41:02.830Z,68.16
2019-03-28T07:41:11.364Z,68.74
2019-03-28T07:42:12.907Z,68.27
2019-03-28T07:43:13.446Z,67.79
2019-03-28T07:44:13.990Z,65.68
2019-03-28T07:45:14.526Z,64.71
2019-03-28T07:46:14.959Z,63.17
2019-03-28T07:47:15.251Z,62.97
2019-03-28T07:48:15.567Z,63.73
2019-03-28T07:49:15.982Z,62.22
2019-03-28T07:50:16.291Z,62.62
2019-03-28T07:51:16.652Z,61.64
2019-03-28T07:52:19.954Z,61.11
2019-03-28T07:53:19.588Z,60.27
2019-03-28T07:54:16.630Z,61.16
2019-03-28T07:55:17.878Z,59.43
2019-03-28T07:56:18.198Z,58.63
2019-03-28T07:57:18.487Z,58.55
2019-03-28T07:58:18.957Z,57.81
2019-03-28T07:59:19.707Z,57.64
2019-03-28T08:00:20.069Z,57.57
2019-03-28T08:01:20.570Z,57.73
2019-03-28T08:02:20.951Z,57.19
2019-03-28T08:03:21.496Z,57.27
2019-03-28T08:04:22.089Z,57.81
2019-03-28T08:05:21.787Z,58.57
2019-03-28T08:06:23.294Z,58.15
2019-03-28T08:07:24.269Z,57.26
2019-03-28T08:08:24.643Z,56.29
2019-03-28T08:09:36.091Z,55.74
2019-03-28T08:10:24.925Z,55.56
2019-03-28T08:11:26.502Z,55.11
2019-03-28T08:12:25.759Z,54.55
2019-03-28T08:13:27.310Z,54.46
2019-03-28T08:14:27.697Z,55.59
2019-03-28T08:15:28.263Z,55.76
2019-03-28T08:16:29.093Z,55.31
2019-03-28T08:17:28.028Z,56.35
2019-03-28T08:18:29.423Z,56.87
2019-03-28T08:19:29.853Z,56.86
2019-03-28T08:20:30.338Z,55.54
2019-03-28T08:21:30.795Z,55.62
2019-03-28T08:22:31.264Z,55.44
2019-03-28T08:23:35.059Z,55.41
2019-03-28T08:24:31.376Z,55.75
2019-03-28T08:25:31.768Z,55.21
2019-03-28T08:26:33.221Z,55.05
2019-03-28T08:27:33.819Z,54.92
2019-03-28T08:28:34.548Z,56.10
2019-03-28T08:29:35.102Z,55.63
2019-03-28T08:30:35.645Z,54.66
2019-03-28T08:31:36.389Z,54.59
2019-03-28T08:31:45.402Z,54.90
2019-03-28T08:32:46.813Z,54.70
2019-03-28T08:33:47.356Z,54.71
2019-03-28T08:34:46.959Z,54.94
2019-03-28T08:35:48.482Z,54.63
2019-03-28T08:36:49.051Z,55.79
2019-03-28T08:37:49.568Z,55.25
2019-03-28T08:38:53.313Z,54.47
2019-03-28T08:39:50.589Z,54.50
2019-03-28T08:40:51.683Z,55.06
2019-03-28T08:41:51.376Z,57.14
2019-03-28T08:42:51.997Z,56.09
2019-03-28T08:43:52.372Z,55.88
2019-03-28T08:44:52.763Z,58.28
2019-03-28T08:45:56.148Z,57.37
2019-03-28T08:46:53.648Z,58.53
2019-03-28T08:47:53.433Z,57.74
2019-03-28T08:48:54.495Z,57.77
2019-03-28T08:49:54.993Z,58.11
2019-03-28T08:50:55.673Z,57.71
2019-03-28T08:51:56.054Z,57.07
2019-03-28T08:52:56.802Z,56.91
2019-03-28T08:53:56.829Z,56.94
2019-03-28T08:54:57.419Z,58.04
2019-03-28T08:55:58.109Z,58.13
2019-03-28T08:56:58.883Z,58.57
2019-03-28T08:57:59.516Z,57.70
2019-03-28T08:59:00.071Z,55.97
2019-03-28T09:00:00.802Z,57.10
2019-03-28T09:01:01.391Z,56.98
2019-03-28T09:02:04.905Z,56.11
2019-03-28T09:03:01.798Z,55.84
2019-03-28T09:04:03.685Z,55.10
2019-03-28T09:05:03.258Z,54.65
2019-03-28T09:06:04.931Z,54.30
2019-03-28T09:07:05.666Z,53.43
2019-03-28T09:08:06.409Z,54.12
2019-03-28T09:09:07.083Z,54.57
2019-03-28T09:10:07.745Z,54.31
2019-03-28T09:11:08.248Z,54.71
2019-03-28T09:12:08.821Z,55.21
2019-03-28T09:13:09.492Z,55.16
2019-03-28T09:14:09.995Z,53.87
2019-03-28T09:15:10.517Z,54.64
2019-03-28T09:16:11.416Z,54.19
2019-03-28T09:17:12.370Z,54.86
2019-03-28T09:18:12.996Z,55.37
2019-03-28T09:18:22.453Z,55.61
2019-03-28T09:19:22.950Z,55.62
2019-03-28T09:20:24.811Z,55.87
2019-03-28T09:21:25.414Z,55.50
2019-03-28T09:22:25.984Z,55.41
2019-03-28T09:23:26.651Z,55.51
2019-03-28T09:24:27.242Z,56.05
2019-03-28T09:25:28.253Z,56.30
2019-03-28T09:26:27.914Z,56.80
2019-03-28T09:27:29.570Z,57.25
2019-03-28T09:28:30.105Z,57.78
2019-03-28T09:29:30.758Z,57.12
2019-03-28T09:30:31.368Z,57.08
2019-03-28T09:31:30.620Z,57.11
2019-03-28T09:32:32.367Z,56.74
2019-03-28T09:33:33.304Z,58.18
2019-03-28T09:34:33.965Z,56.79
2019-03-28T09:35:34.796Z,56.91
2019-03-28T09:36:34.279Z,57.27
2019-03-28T09:37:35.999Z,56.73
2019-03-28T09:38:36.476Z,57.03
2019-03-28T09:39:37.038Z,58.04
2019-03-28T09:40:37.564Z,58.59
2019-03-28T09:41:38.353Z,57.42
2019-03-28T09:42:38.910Z,57.26
2019-03-28T09:43:39.471Z,57.43
2019-03-28T09:44:39.585Z,57.44
2019-03-28T09:45:40.151Z,58.10
2019-03-28T09:46:40.761Z,58.30
2019-03-28T09:47:41.482Z,58.52
2019-03-28T09:48:42.320Z,58.58
2019-03-28T09:49:41.823Z,58.70
2019-03-28T09:50:42.337Z,60.07
2019-03-28T09:51:43.925Z,60.40
2019-03-28T09:52:44.588Z,60.41
2019-03-28T09:53:45.208Z,60.64
2019-03-28T09:54:45.691Z,60.13
2019-03-28T09:55:46.233Z,60.22
2019-03-28T09:56:46.945Z,60.37
2019-03-28T09:57:47.665Z,58.73
2019-03-28T09:58:48.294Z,59.13
2019-03-28T09:59:48.937Z,59.37
2019-03-28T10:01:02.007Z,59.67
2019-03-28T10:01:49.026Z,60.57
2019-03-28T10:02:50.661Z,60.27
2019-03-28T10:03:51.560Z,60.35
2019-03-28T10:04:52.161Z,60.19
2019-03-28T10:05:51.763Z,60.49
2019-03-28T10:06:53.222Z,60.10
2019-03-28T10:07:01.746Z,60.02
2019-03-28T10:08:03.403Z,60.07
2019-03-28T10:09:03.061Z,60.60
2019-03-28T10:10:05.370Z,60.22
2019-03-28T10:11:04.243Z,62.21
2019-03-28T10:12:05.915Z,61.94
2019-03-28T10:13:06.493Z,61.44
2019-03-28T10:14:07.044Z,61.53
2019-03-28T10:15:07.546Z,62.08
2019-03-28T10:16:08.209Z,60.58
2019-03-28T10:17:08.814Z,60.77
2019-03-28T10:18:09.283Z,60.55
2019-03-28T10:19:09.976Z,60.59
2019-03-28T10:20:10.457Z,61.48
2019-03-28T10:21:11.038Z,60.56
2019-03-28T10:22:11.604Z,60.41
2019-03-28T10:23:12.514Z,59.98
2019-03-28T10:24:11.643Z,60.17
2019-03-28T10:25:12.761Z,59.95
2019-03-28T10:26:11.672Z,60.79
2019-03-28T10:27:13.429Z,61.36
2019-03-28T10:28:14.129Z,60.73
2019-03-28T10:29:14.940Z,60.20
2019-03-28T10:30:15.560Z,58.57
2019-03-28T10:31:16.997Z,58.38
2019-03-28T10:32:15.532Z,59.23
2019-03-28T10:33:17.339Z,58.62
2019-03-28T10:34:17.790Z,58.58
2019-03-28T10:35:18.505Z,58.88
2019-03-28T10:36:19.082Z,59.49
2019-03-28T10:37:19.666Z,59.25
2019-03-28T10:38:20.270Z,59.98
2019-03-28T10:39:20.796Z,59.80
2019-03-28T10:40:21.390Z,59.12
2019-03-28T10:41:22.084Z,59.68
2019-03-28T10:42:23.018Z,59.24
2019-03-28T10:43:23.901Z,58.56
2019-03-28T10:44:23.948Z,57.64
2019-03-28T10:45:24.619Z,57.02
2019-03-28T10:46:25.294Z,57.90
2019-03-28T10:47:25.864Z,57.07
2019-03-28T10:48:26.498Z,56.90
2019-03-28T10:49:27.143Z,57.39
2019-03-28T10:50:40.169Z,58.17
2019-03-28T10:51:26.751Z,57.86
2019-03-28T10:52:28.272Z,57.06
2019-03-28T10:53:30.237Z,56.10
2019-03-28T10:54:28.488Z,56.64
2019-03-28T10:55:30.012Z,56.80
2019-03-28T10:56:30.605Z,57.38
2019-03-28T10:56:51.011Z,57.43
2019-03-28T10:57:40.022Z,57.45
2019-03-28T10:58:41.847Z,58.57
2019-03-28T10:59:42.118Z,57.86
2019-03-28T11:00:42.757Z,56.14
2019-03-28T11:01:50.202Z,56.90
2019-03-28T11:02:43.015Z,57.81
2019-03-28T11:03:44.743Z,57.62
2019-03-28T11:04:45.351Z,57.14
2019-03-28T11:05:45.885Z,56.44
2019-03-28T11:06:46.463Z,57.39
2019-03-28T11:07:47.010Z,57.34
2019-03-28T11:08:47.808Z,57.86
2019-03-28T11:09:47.800Z,57.38
2019-03-28T11:10:48.422Z,57.62
2019-03-28T11:11:48.952Z,57.79
2019-03-28T11:12:49.543Z,58.24
2019-03-28T11:13:50.109Z,56.33
2019-03-28T11:14:50.626Z,57.19
2019-03-28T11:15:51.247Z,56.63
2019-03-28T11:16:51.878Z,56.77
2019-03-28T11:17:52.469Z,56.48
2019-03-28T11:18:53.160Z,56.25
2019-03-28T11:19:55.941Z,56.61
2019-03-28T11:20:53.226Z,56.56
2019-03-28T11:21:54.770Z,56.91
2019-03-28T11:22:55.357Z,56.44
2019-03-28T11:23:55.876Z,57.01
2019-03-28T11:24:56.445Z,58.18
2019-03-28T11:25:57.545Z,57.32
2019-03-28T11:26:57.681Z,56.63
2019-03-28T11:27:57.935Z,56.16
2019-03-28T11:29:01.070Z,56.01
2019-03-28T11:29:59.724Z,56.22
2019-03-28T11:31:00.131Z,56.89
2019-03-28T11:32:01.636Z,57.09
2019-03-28T11:33:02.249Z,56.96
2019-03-28T11:34:02.986Z,56.75
2019-03-28T11:35:03.899Z,55.85
2019-03-28T11:36:04.624Z,56.96
2019-03-28T11:37:05.315Z,57.45
2019-03-28T11:38:09.336Z,57.72
2019-03-28T11:39:05.449Z,58.84
2019-03-28T11:40:09.023Z,58.52
2019-03-28T11:41:06.489Z,58.89
2019-03-28T11:42:07.129Z,58.96
2019-03-28T11:43:07.720Z,58.71
2019-03-28T11:44:09.290Z,58.21
2019-03-28T11:45:09.922Z,59.08
2019-03-28T11:46:09.221Z,58.54
2019-03-28T11:47:10.942Z,58.65
2019-03-28T11:48:11.606Z,59.22
2019-03-28T11:49:12.379Z,58.78
2019-03-28T11:50:13.038Z,59.38
2019-03-28T11:50:22.089Z,58.23
2019-03-28T11:51:23.418Z,58.17
2019-03-28T11:52:23.206Z,59.06
2019-03-28T11:53:24.897Z,59.75
2019-03-28T11:54:25.686Z,59.87
2019-03-28T11:55:25.666Z,59.84
2019-03-28T11:56:26.438Z,59.67
2019-03-28T11:57:26.943Z,59.60
2019-03-28T11:58:27.534Z,60.16
2019-03-28T11:59:28.279Z,60.69
2019-03-28T12:00:29.553Z,60.99
2019-03-28T12:01:28.396Z,61.18
2019-03-28T12:02:30.081Z,61.56
2019-03-28T12:03:30.795Z,61.72
2019-03-28T12:04:31.409Z,61.33
2019-03-28T12:05:31.994Z,60.92
2019-03-28T12:06:32.565Z,61.58
2019-03-28T12:07:33.101Z,62.03
2019-03-28T12:08:33.149Z,61.62
2019-03-28T12:09:33.707Z,60.74
2019-03-28T12:10:34.339Z,60.48
2019-03-28T12:11:35.017Z,60.11
2019-03-28T12:12:35.512Z,60.54
2019-03-28T12:13:44.681Z,60.97
2019-03-28T12:14:35.638Z,60.21
2019-03-28T12:15:37.177Z,60.88
2019-03-28T12:16:37.836Z,60.10
2019-03-28T12:17:38.365Z,59.56
2019-03-28T12:18:39.362Z,59.09
2019-03-28T12:19:40.296Z,59.68
2019-03-28T12:20:40.861Z,59.94
2019-03-28T12:21:41.672Z,60.41
2019-03-28T12:22:42.299Z,60.55
2019-03-28T12:23:42.314Z,60.21
2019-03-28T12:24:42.867Z,60.32
2019-03-28T12:25:43.509Z,60.40
2019-03-28T12:26:44.196Z,59.73
2019-03-28T12:27:44.680Z,59.41
2019-03-28T12:28:45.459Z,60.20
2019-03-28T12:29:45.755Z,60.08
2019-03-28T12:30:46.396Z,60.62
2019-03-28T12:31:46.953Z,61.18
2019-03-28T12:32:47.813Z,60.39
2019-03-28T12:33:48.487Z,59.64
2019-03-28T12:34:49.018Z,59.88
2019-03-28T12:35:49.634Z,59.37
2019-03-28T12:36:50.117Z,59.50
2019-03-28T12:37:50.681Z,59.88
2019-03-28T12:37:59.216Z,60.34
2019-03-28T12:39:00.416Z,60.32
2019-03-28T12:40:01.111Z,60.14
2019-03-28T12:41:01.758Z,60.65
2019-03-28T12:42:02.489Z,60.60
2019-03-28T12:43:03.159Z,61.20
2019-03-28T12:44:03.842Z,61.50
2019-03-28T12:45:04.658Z,61.63